createdAt,value
2023-03-29T00:02:09.423Z,101394.34
2023-03-29T00:04:39.049Z,101386.47
2023-03-29T00:07:08.523Z,101393.53
2023-03-29T00:09:37.571Z,101394.34
2023-03-29T00:12:07.510Z,101399.50
2023-03-29T00:14:36.631Z,101398.53
2023-03-29T00:17:08.007Z,101401.94
2023-03-29T00:19:37.196Z,101398.41
2023-03-29T00:22:08.291Z,101404.47
2023-03-29T00:24:37.502Z,101393.16
2023-03-29T00:27:06.827Z,101397.59
2023-03-29T00:29:35.977Z,101400.25
2023-03-29T00:32:05.614Z,101395.06
2023-03-29T00:34:37.067Z,101394.97
2023-03-29T00:37:08.851Z,101400.22
2023-03-29T00:39:42.061Z,101406.28
2023-03-29T00:42:14.611Z,101402.75
2023-03-29T00:45:18.883Z,101408.94
2023-03-29T00:47:52.420Z,101410.66
2023-03-29T00:50:29.846Z,101397.44
2023-03-29T00:53:03.668Z,101398.44
2023-03-29T00:55:38.215Z,101405.31
2023-03-29T00:58:13.020Z,101401.84
2023-03-29T01:00:48.572Z,101401.00
2023-03-29T01:03:25.280Z,101398.38
2023-03-29T01:06:01.259Z,101390.53
2023-03-29T01:08:37.391Z,101388.84
2023-03-29T01:11:11.468Z,101383.56
2023-03-29T01:13:44.192Z,101388.00
2023-03-29T01:16:15.613Z,101384.56
2023-03-29T01:18:46.946Z,101387.19
2023-03-29T01:21:32.413Z,101381.03
2023-03-29T01:24:22.166Z,101379.16
2023-03-29T01:27:00.692Z,101369.53
2023-03-29T01:29:37.664Z,101378.13
2023-03-29T01:32:11.280Z,101376.34
2023-03-29T01:34:46.826Z,101381.66
2023-03-29T01:37:24.713Z,101372.00
2023-03-29T01:39:54.977Z,101370.19
2023-03-29T01:42:33.587Z,101372.00
2023-03-29T01:45:12.725Z,101370.34
2023-03-29T01:47:50.372Z,101360.63
2023-03-29T01:50:28.924Z,101373.69
2023-03-29T01:53:00.900Z,101372.88
2023-03-29T01:55:36.064Z,101376.34
2023-03-29T01:58:08.387Z,101372.72
2023-03-29T02:00:41.396Z,101373.47
2023-03-29T02:03:15.046Z,101379.63
2023-03-29T02:05:46.034Z,101380.50
2023-03-29T02:08:17.829Z,101384.00
2023-03-29T02:10:48.572Z,101388.44
2023-03-29T02:13:18.167Z,101383.94
2023-03-29T02:15:48.999Z,101388.25
2023-03-29T02:18:20.387Z,101376.94
2023-03-29T02:20:52.050Z,101378.59
2023-03-29T02:23:27.342Z,101384.75
2023-03-29T02:25:58.848Z,101383.94
2023-03-29T02:28:29.388Z,101391.72
2023-03-29T02:31:26.239Z,101385.53
2023-03-29T02:34:02.988Z,101393.38
2023-03-29T02:36:36.072Z,101379.50
2023-03-29T02:39:08.155Z,101384.66
2023-03-29T02:41:39.610Z,101379.50
2023-03-29T02:44:14.888Z,101380.41
2023-03-29T02:46:46.693Z,101375.13
2023-03-29T02:49:15.951Z,101368.94
2023-03-29T02:51:48.479Z,101369.03
2023-03-29T02:54:19.988Z,101371.63
2023-03-29T02:56:56.101Z,101365.44
2023-03-29T02:59:25.866Z,101365.38
2023-03-29T03:01:56.715Z,101367.06
2023-03-29T03:04:26.676Z,101369.59
2023-03-29T03:06:56.152Z,101372.22
2023-03-29T03:09:25.429Z,101371.34
2023-03-29T03:11:55.499Z,101359.97
2023-03-29T03:14:28.334Z,101361.66
2023-03-29T03:17:04.421Z,101366.88
2023-03-29T03:19:34.464Z,101369.44
2023-03-29T03:22:06.008Z,101363.28
2023-03-29T03:24:35.650Z,101368.50
2023-03-29T03:27:05.413Z,101361.44
2023-03-29T03:29:36.078Z,101364.00
2023-03-29T03:32:22.848Z,101364.88
2023-03-29T03:35:24.402Z,101363.94
2023-03-29T03:37:53.862Z,101369.09
2023-03-29T03:40:22.919Z,101359.44
2023-03-29T03:42:52.379Z,101364.63
2023-03-29T03:45:21.743Z,101367.19
2023-03-29T03:48:05.168Z,101368.00
2023-03-29T03:51:10.201Z,101361.81
2023-03-29T03:53:39.826Z,101362.63
2023-03-29T03:56:29.920Z,101356.41
2023-03-29T03:59:11.324Z,101366.81
2023-03-29T04:01:55.041Z,101376.34
2023-03-29T04:04:28.750Z,101376.25
2023-03-29T04:07:08.546Z,101371.00
2023-03-29T04:09:56.745Z,101379.75
2023-03-29T04:12:38.705Z,101376.22
2023-03-29T04:15:10.566Z,101378.84
2023-03-29T04:17:43.643Z,101372.75
2023-03-29T04:20:37.429Z,101373.59
2023-03-29T04:23:06.958Z,101369.03
2023-03-29T04:25:38.485Z,101368.13
2023-03-29T04:28:37.336Z,101371.50
2023-03-29T04:31:15.807Z,101363.59
2023-03-29T04:34:00.702Z,101371.41
2023-03-29T04:36:32.819Z,101371.41
2023-03-29T04:39:01.996Z,101377.47
2023-03-29T04:41:32.724Z,101365.25
2023-03-29T04:44:06.938Z,101362.56
2023-03-29T04:46:40.313Z,101366.97
2023-03-29T04:49:12.687Z,101366.97
2023-03-29T04:51:46.579Z,101360.81
2023-03-29T04:54:18.300Z,101366.88
2023-03-29T04:57:03.532Z,101362.53
2023-03-29T04:59:57.536Z,101353.75
2023-03-29T05:02:46.719Z,101359.88
2023-03-29T05:05:17.273Z,101355.50
2023-03-29T05:07:50.813Z,101354.66
2023-03-29T05:10:24.694Z,101355.59
2023-03-29T05:12:56.241Z,101356.47
2023-03-29T05:15:25.825Z,101349.47
2023-03-29T05:17:55.393Z,101351.38
2023-03-29T05:20:25.044Z,101356.94
2023-03-29T05:22:57.136Z,101350.94
2023-03-29T05:25:50.122Z,101350.00
2023-03-29T05:28:19.723Z,101347.47
2023-03-29T05:30:49.455Z,101346.72
2023-03-29T05:33:23.819Z,101349.53
2023-03-29T05:36:00.866Z,101350.66
2023-03-29T05:38:33.976Z,101349.06
2023-03-29T05:41:03.590Z,101353.59
2023-03-29T05:43:51.572Z,101349.38
2023-03-29T05:46:24.239Z,101353.00
2023-03-29T05:48:56.740Z,101346.19
2023-03-29T05:51:42.225Z,101348.22
2023-03-29T05:54:14.071Z,101342.22
2023-03-29T05:56:43.685Z,101344.97
2023-03-29T05:59:13.873Z,101348.72
2023-03-29T06:01:43.035Z,101343.56
2023-03-29T06:04:14.179Z,101353.34
2023-03-29T06:06:55.322Z,101349.16
2023-03-29T06:09:26.771Z,101347.44
2023-03-29T06:12:03.141Z,101340.53
2023-03-29T06:14:38.943Z,101342.47
2023-03-29T06:17:30.654Z,101342.56
2023-03-29T06:20:00.637Z,101339.31
2023-03-29T06:22:31.812Z,101339.38
2023-03-29T06:25:02.650Z,101350.91
2023-03-29T06:27:35.286Z,101342.34
2023-03-29T06:30:06.247Z,101341.63
2023-03-29T06:32:37.542Z,101341.75
2023-03-29T06:35:18.488Z,101352.38
2023-03-29T06:37:54.590Z,101350.75
2023-03-29T06:40:34.015Z,101348.22
2023-03-29T06:43:03.403Z,101344.78
2023-03-29T06:45:53.052Z,101343.16
2023-03-29T06:48:29.400Z,101340.63
2023-03-29T06:50:58.976Z,101345.06
2023-03-29T06:53:31.459Z,101340.78
2023-03-29T06:56:09.495Z,101348.75
2023-03-29T06:58:39.202Z,101342.69
2023-03-29T07:01:21.836Z,101336.59
2023-03-29T07:04:04.807Z,101342.84
2023-03-29T07:06:40.443Z,101331.41
2023-03-29T07:09:09.608Z,101322.72
2023-03-29T07:12:06.895Z,101323.66
2023-03-29T07:14:36.144Z,101337.72
2023-03-29T07:17:06.293Z,101332.47
2023-03-29T07:19:37.763Z,101317.59
2023-03-29T07:22:15.359Z,101327.28
2023-03-29T07:24:52.288Z,101322.03
2023-03-29T07:27:23.762Z,101318.53
2023-03-29T07:29:52.994Z,101317.69
2023-03-29T07:32:22.597Z,101319.44
2023-03-29T07:35:04.907Z,101315.06
2023-03-29T07:37:38.054Z,101309.78
2023-03-29T07:40:12.971Z,101301.84
2023-03-29T07:43:11.110Z,101295.72
2023-03-29T07:45:42.362Z,101287.78
2023-03-29T07:48:14.620Z,101286.91
2023-03-29T07:50:55.938Z,101281.56
2023-03-29T07:53:30.683Z,101276.22
2023-03-29T07:56:01.868Z,101278.94
2023-03-29T07:58:53.050Z,101293.91
2023-03-29T08:01:22.920Z,101288.59
2023-03-29T08:04:04.924Z,101293.00
2023-03-29T08:06:57.020Z,101289.44
2023-03-29T08:09:34.851Z,101290.31
2023-03-29T08:12:04.646Z,101285.88
2023-03-29T08:14:39.485Z,101298.19
2023-03-29T08:17:16.048Z,101280.56
2023-03-29T08:19:51.427Z,101286.72
2023-03-29T08:22:26.283Z,101286.69
2023-03-29T08:25:21.984Z,101283.09
2023-03-29T08:27:54.732Z,101278.69
2023-03-29T08:30:34.833Z,101277.75
2023-03-29T08:33:05.223Z,101274.19
2023-03-29T08:35:34.797Z,101267.06
2023-03-29T08:38:27.217Z,101274.09
2023-03-29T08:40:57.295Z,101277.56
2023-03-29T08:43:47.641Z,101266.06
2023-03-29T08:46:45.903Z,101262.50
2023-03-29T08:49:32.829Z,101262.44
2023-03-29T08:52:13.059Z,101262.38
2023-03-29T08:54:46.912Z,101256.13
2023-03-29T08:57:48.457Z,101253.41
2023-03-29T09:00:36.852Z,101256.03
2023-03-29T09:03:16.126Z,101243.56
2023-03-29T09:05:50.008Z,101248.84
2023-03-29T09:08:25.468Z,101252.28
2023-03-29T09:11:13.025Z,101247.84
2023-03-29T09:13:54.831Z,101242.44
2023-03-29T09:16:33.560Z,101247.63
2023-03-29T09:19:17.545Z,101249.31
2023-03-29T09:21:53.161Z,101241.31
2023-03-29T09:24:42.821Z,101244.78
2023-03-29T09:27:31.632Z,101244.63
2023-03-29T09:30:26.002Z,101249.81
2023-03-29T09:33:08.111Z,101240.91
2023-03-29T09:36:03.041Z,101235.50
2023-03-29T09:38:35.804Z,101238.94
2023-03-29T09:41:14.845Z,101234.44
2023-03-29T09:43:46.389Z,101233.41
2023-03-29T09:46:26.336Z,101226.31
2023-03-29T09:48:57.233Z,101226.22
2023-03-29T09:51:31.068Z,101229.69
2023-03-29T09:54:01.374Z,101226.97
2023-03-29T09:56:56.131Z,101218.91
2023-03-29T09:59:26.569Z,101209.91
2023-03-29T10:02:06.612Z,101210.75
2023-03-29T10:04:37.026Z,101210.66
2023-03-29T10:07:08.938Z,101200.81
2023-03-29T10:09:38.616Z,101199.84
2023-03-29T10:12:23.133Z,101195.22
2023-03-29T10:14:56.108Z,101194.25
2023-03-29T10:17:28.092Z,101193.25
2023-03-29T10:20:02.194Z,101190.50
2023-03-29T10:22:40.510Z,101190.31
2023-03-29T10:25:15.447Z,101191.97
2023-03-29T10:27:47.508Z,101185.69
2023-03-29T10:30:25.571Z,101182.00
2023-03-29T10:32:59.820Z,101180.09
2023-03-29T10:35:33.955Z,101177.34
2023-03-29T10:38:08.735Z,101172.75
2023-03-29T10:40:44.374Z,101174.47
2023-03-29T10:43:21.534Z,101170.75
2023-03-29T10:45:52.426Z,101172.38
2023-03-29T10:48:28.982Z,101168.69
2023-03-29T10:51:02.599Z,101171.25
2023-03-29T10:53:35.376Z,101162.16
2023-03-29T10:56:33.493Z,101157.59
2023-03-29T10:59:21.676Z,101153.84
2023-03-29T11:02:21.080Z,101153.66
2023-03-29T11:04:58.463Z,101149.06
2023-03-29T11:07:32.438Z,101156.75
2023-03-29T11:10:21.077Z,101145.97
2023-03-29T11:12:56.086Z,101139.56
2023-03-29T11:15:38.386Z,101127.84
2023-03-29T11:18:30.566Z,101128.47
2023-03-29T11:21:11.704Z,101120.25
2023-03-29T11:23:49.099Z,101130.47
2023-03-29T11:26:25.281Z,101114.25
2023-03-29T11:28:59.516Z,101118.31
2023-03-29T11:31:40.559Z,101109.97
2023-03-29T11:34:24.691Z,101110.50
2023-03-29T11:37:01.125Z,101098.78
2023-03-29T11:39:44.913Z,101101.16
2023-03-29T11:42:21.485Z,101106.16
2023-03-29T11:44:55.124Z,101096.06
2023-03-29T11:47:29.078Z,101097.50
2023-03-29T11:50:02.220Z,101096.25
2023-03-29T11:52:38.809Z,101096.09
2023-03-29T11:55:13.508Z,101085.97
2023-03-29T11:57:49.208Z,101091.00
2023-03-29T12:00:23.173Z,101084.53
2023-03-29T12:02:59.639Z,101079.75
2023-03-29T12:05:36.200Z,101079.53
2023-03-29T12:08:09.749Z,101076.78
2023-03-29T12:10:43.464Z,101080.16
2023-03-29T12:13:22.576Z,101074.97
2023-03-29T12:15:58.961Z,101084.47
2023-03-29T12:18:33.545Z,101079.28
2023-03-29T12:21:08.288Z,101078.13
2023-03-29T12:23:37.938Z,101070.91
2023-03-29T12:26:21.096Z,101072.69
2023-03-29T12:29:07.348Z,101075.22
2023-03-29T12:31:45.192Z,101068.09
2023-03-29T12:34:36.034Z,101059.41
2023-03-29T12:37:47.084Z,101057.84
2023-03-29T12:40:42.977Z,101058.72
2023-03-29T12:43:34.351Z,101070.09
2023-03-29T12:46:22.521Z,101059.47
2023-03-29T12:48:57.254Z,101049.56
2023-03-29T12:51:32.792Z,101052.13
2023-03-29T12:54:08.660Z,101036.03
2023-03-29T12:56:42.753Z,101030.59
2023-03-29T12:59:27.204Z,101030.59
2023-03-29T13:02:05.433Z,101029.59
2023-03-29T13:04:49.514Z,101032.22
2023-03-29T13:07:31.936Z,101044.09
2023-03-29T13:10:04.037Z,101036.97
2023-03-29T13:12:41.933Z,101034.97
2023-03-29T13:15:26.343Z,101029.69
2023-03-29T13:18:10.941Z,101028.81
2023-03-29T13:20:48.975Z,101032.38
2023-03-29T13:23:34.007Z,101019.06
2023-03-29T13:26:17.525Z,101021.44
2023-03-29T13:29:03.439Z,101027.44
2023-03-29T13:31:38.839Z,101022.13
2023-03-29T13:34:22.699Z,101021.06
2023-03-29T13:37:02.534Z,101012.78
2023-03-29T13:39:36.747Z,101014.59
2023-03-29T13:42:19.918Z,101025.88
2023-03-29T13:44:50.397Z,101006.09
2023-03-29T13:47:43.192Z,101007.63
2023-03-29T13:50:30.434Z,101002.50
2023-03-29T13:53:05.184Z,101006.22
2023-03-29T13:55:43.351Z,101010.75
2023-03-29T13:58:18.645Z,101002.06
2023-03-29T14:00:52.238Z,101001.56
2023-03-29T14:03:29.714Z,101002.16
2023-03-29T14:06:04.858Z,100992.16
2023-03-29T14:08:41.097Z,100991.19
2023-03-29T14:11:21.325Z,100985.72
2023-03-29T14:13:53.858Z,100985.34
2023-03-29T14:16:24.492Z,100981.84
2023-03-29T14:18:54.375Z,100980.63
2023-03-29T14:21:25.111Z,100974.09
2023-03-29T14:23:59.218Z,100972.09
2023-03-29T14:26:33.435Z,100968.19
2023-03-29T14:29:04.479Z,100966.59
2023-03-29T14:31:37.268Z,100954.19
2023-03-29T14:34:08.346Z,100954.09
2023-03-29T14:36:40.899Z,100962.69
2023-03-29T14:39:16.676Z,100947.09
2023-03-29T14:41:52.712Z,100942.44
2023-03-29T14:44:25.878Z,100941.41
2023-03-29T14:46:56.105Z,100948.84
2023-03-29T14:49:26.319Z,100944.94
2023-03-29T14:51:57.937Z,100942.53
2023-03-29T14:54:29.932Z,100942.03
2023-03-29T14:56:59.990Z,100943.19
2023-03-29T14:59:36.964Z,100936.44
2023-03-29T15:02:22.991Z,100925.03
2023-03-29T15:04:58.147Z,100932.41
2023-03-29T15:07:30.590Z,100927.22
2023-03-29T15:10:02.384Z,100921.28
2023-03-29T15:12:34.930Z,100923.09
2023-03-29T15:15:07.054Z,100912.75
2023-03-29T15:17:51.048Z,100911.97
2023-03-29T15:20:25.634Z,100916.34
2023-03-29T15:23:02.363Z,100905.97
2023-03-29T15:25:37.334Z,100918.50
2023-03-29T15:28:07.608Z,100913.91
2023-03-29T15:30:39.850Z,100910.47
2023-03-29T15:33:17.889Z,100916.72
2023-03-29T15:35:51.429Z,100910.78
2023-03-29T15:38:30.197Z,100912.88
2023-03-29T15:41:06.640Z,100913.88
2023-03-29T15:43:36.321Z,100905.19
2023-03-29T15:46:05.873Z,100905.50
2023-03-29T15:48:35.878Z,100901.34
2023-03-29T15:51:08.349Z,100904.84
2023-03-29T15:53:39.821Z,100904.31
2023-03-29T15:56:15.830Z,100895.50
2023-03-29T15:58:45.699Z,100897.63
2023-03-29T16:01:33.497Z,100899.56
2023-03-29T16:04:03.502Z,100904.22
2023-03-29T16:06:33.509Z,100904.22
2023-03-29T16:09:05.351Z,100899.91
2023-03-29T16:11:34.893Z,100890.41
2023-03-29T16:14:04.595Z,100897.66
2023-03-29T16:16:34.908Z,100888.16
2023-03-29T16:19:04.998Z,100881.72
2023-03-29T16:21:34.130Z,100876.59
2023-03-29T16:24:07.076Z,100878.44
2023-03-29T16:26:36.211Z,100874.88
2023-03-29T16:29:05.606Z,100872.38
2023-03-29T16:31:35.004Z,100875.50
2023-03-29T16:34:04.784Z,100870.22
2023-03-29T16:36:35.065Z,100879.31
2023-03-29T16:39:06.276Z,100870.50
2023-03-29T16:41:35.553Z,100875.91
2023-03-29T16:44:05.500Z,100867.97
2023-03-29T16:46:36.152Z,100876.03
2023-03-29T16:49:08.940Z,100867.22
2023-03-29T16:51:38.084Z,100862.97
2023-03-29T16:54:09.281Z,100860.38
2023-03-29T16:56:38.529Z,100864.03
2023-03-29T16:59:09.166Z,100867.56
2023-03-29T17:01:38.914Z,100872.94
2023-03-29T17:04:08.848Z,100870.34
2023-03-29T17:06:38.091Z,100868.53
2023-03-29T17:09:09.746Z,100865.09
2023-03-29T17:11:39.293Z,100869.69
2023-03-29T17:14:10.473Z,100867.94
2023-03-29T17:16:39.789Z,100868.91
2023-03-29T17:19:09.558Z,100871.63
2023-03-29T17:21:38.651Z,100862.78
2023-03-29T17:24:10.829Z,100854.03
2023-03-29T17:26:40.056Z,100844.34
2023-03-29T17:29:09.598Z,100853.34
2023-03-29T17:31:46.873Z,100847.19
2023-03-29T17:34:16.618Z,100841.94
2023-03-29T17:36:46.880Z,100850.06
2023-03-29T17:39:18.779Z,100847.44
2023-03-29T17:41:49.171Z,100842.31
2023-03-29T17:44:19.148Z,100849.47
2023-03-29T17:46:48.605Z,100853.94
2023-03-29T17:49:18.167Z,100855.84
2023-03-29T17:51:48.151Z,100851.53
2023-03-29T17:54:19.120Z,100848.09
2023-03-29T17:56:48.913Z,100853.47
2023-03-29T17:59:18.395Z,100860.69
2023-03-29T18:01:47.587Z,100858.03
2023-03-29T18:04:16.980Z,100854.56
2023-03-29T18:06:47.072Z,100861.75
2023-03-29T18:09:18.118Z,100853.84
2023-03-29T18:11:47.956Z,100853.94
2023-03-29T18:14:17.506Z,100859.28
2023-03-29T18:16:46.989Z,100861.16
2023-03-29T18:19:17.044Z,100856.81
2023-03-29T18:21:46.242Z,100861.34
2023-03-29T18:24:15.676Z,100862.25
2023-03-29T18:26:46.470Z,100859.75
2023-03-29T18:29:16.561Z,100850.91
2023-03-29T18:31:46.599Z,100856.25
2023-03-29T18:34:16.232Z,100861.69
2023-03-29T18:36:45.495Z,100853.75
2023-03-29T18:39:15.315Z,100851.09
2023-03-29T18:41:46.374Z,100847.59
2023-03-29T18:44:15.887Z,100845.00
2023-03-29T18:46:45.839Z,100841.50
2023-03-29T18:49:15.194Z,100833.53
2023-03-29T18:51:47.619Z,100837.19
2023-03-29T18:54:19.772Z,100833.63
2023-03-29T18:56:50.568Z,100830.16
2023-03-29T18:59:20.195Z,100820.44
2023-03-29T19:01:49.445Z,100825.81
2023-03-29T19:04:20.057Z,100818.84
2023-03-29T19:06:49.569Z,100822.41
2023-03-29T19:09:18.924Z,100819.75
2023-03-29T19:11:51.138Z,100813.69
2023-03-29T19:14:23.734Z,100811.16
2023-03-29T19:16:53.660Z,100816.47
2023-03-29T19:19:26.553Z,100813.84
2023-03-29T19:21:59.009Z,100807.75
2023-03-29T19:24:30.230Z,100809.59
2023-03-29T19:27:01.838Z,100821.16
2023-03-29T19:29:31.565Z,100806.16
2023-03-29T19:32:00.936Z,100812.41
2023-03-29T19:34:30.588Z,100813.41
2023-03-29T19:37:00.917Z,100815.34
2023-03-29T19:39:30.518Z,100809.31
2023-03-29T19:42:01.038Z,100799.59
2023-03-29T19:44:31.012Z,100807.72
2023-03-29T19:47:00.358Z,100799.75
2023-03-29T19:49:30.294Z,100803.34
2023-03-29T19:52:00.880Z,100808.66
2023-03-29T19:54:30.788Z,100785.63
2023-03-29T19:57:01.884Z,100791.94
2023-03-29T19:59:32.235Z,100792.94
2023-03-29T20:02:02.455Z,100793.00
2023-03-29T20:04:33.481Z,100775.31
2023-03-29T20:07:02.856Z,100785.94
2023-03-29T20:09:32.714Z,100770.91
2023-03-29T20:12:03.471Z,100769.16
2023-03-29T20:14:34.311Z,100766.50
2023-03-29T20:17:04.513Z,100771.88
2023-03-29T20:19:36.612Z,100768.31
2023-03-29T20:22:08.042Z,100756.88
2023-03-29T20:24:37.847Z,100762.19
2023-03-29T20:27:08.693Z,100756.03
2023-03-29T20:29:38.331Z,100750.72
2023-03-29T20:32:07.655Z,100747.13
2023-03-29T20:34:37.228Z,100749.00
2023-03-29T20:37:06.512Z,100749.84
2023-03-29T20:39:35.956Z,100749.88
2023-03-29T20:42:09.899Z,100752.53
2023-03-29T20:44:39.311Z,100741.97
2023-03-29T20:47:08.641Z,100739.25
2023-03-29T20:49:38.798Z,100727.78
2023-03-29T20:52:13.890Z,100725.19
2023-03-29T20:54:44.724Z,100729.63
2023-03-29T20:57:16.858Z,100733.16
2023-03-29T20:59:48.229Z,100728.75
2023-03-29T21:02:21.273Z,100727.84
2023-03-29T21:04:52.095Z,100724.31
2023-03-29T21:07:21.906Z,100711.91
2023-03-29T21:09:51.377Z,100720.00
2023-03-29T21:12:23.612Z,100721.75
2023-03-29T21:14:53.250Z,100723.53
2023-03-29T21:17:22.714Z,100719.94
2023-03-29T21:19:53.277Z,100723.59
2023-03-29T21:22:23.304Z,100716.56
2023-03-29T21:24:53.091Z,100718.28
2023-03-29T21:27:25.791Z,100715.66
2023-03-29T21:29:55.405Z,100712.13
2023-03-29T21:32:24.700Z,100717.44
2023-03-29T21:34:54.250Z,100705.97
2023-03-29T21:37:23.663Z,100701.50
2023-03-29T21:39:53.093Z,100698.91
2023-03-29T21:42:23.866Z,100695.25
2023-03-29T21:44:53.289Z,100689.09
2023-03-29T21:47:22.478Z,100696.03
2023-03-29T21:49:51.794Z,100689.00
2023-03-29T21:52:21.589Z,100696.13
2023-03-29T21:54:51.308Z,100683.75
2023-03-29T21:57:20.594Z,100682.09
2023-03-29T21:59:51.302Z,100689.16
2023-03-29T22:02:20.404Z,100677.69
2023-03-29T22:04:50.063Z,100680.25
2023-03-29T22:07:22.829Z,100686.50
2023-03-29T22:09:52.360Z,100680.25
2023-03-29T22:12:22.817Z,100682.91
2023-03-29T22:14:54.049Z,100677.44
2023-03-29T22:17:26.844Z,100682.81
2023-03-29T22:19:57.833Z,100678.44
2023-03-29T22:22:27.095Z,100673.09
2023-03-29T22:24:57.079Z,100669.47
2023-03-29T22:27:26.353Z,100665.09
2023-03-29T22:29:58.781Z,100659.81
2023-03-29T22:32:29.810Z,100665.19
2023-03-29T22:34:59.643Z,100666.09
2023-03-29T22:37:28.728Z,100660.78
2023-03-29T22:39:58.195Z,100659.84
2023-03-29T22:42:27.389Z,100658.00
2023-03-29T22:44:58.450Z,100650.03
2023-03-29T22:47:27.702Z,100654.53
2023-03-29T22:49:57.189Z,100650.03
2023-03-29T22:52:27.155Z,100648.31
2023-03-29T22:54:56.728Z,100641.19
2023-03-29T22:57:25.888Z,100640.25
2023-03-29T22:59:55.420Z,100635.78
2023-03-29T23:02:26.021Z,100637.53
2023-03-29T23:04:55.741Z,100644.66
2023-03-29T23:07:24.893Z,100635.66
2023-03-29T23:09:54.312Z,100640.97
2023-03-29T23:12:24.623Z,100639.19
2023-03-29T23:14:55.882Z,100630.41
2023-03-29T23:17:26.473Z,100624.19
2023-03-29T23:19:56.686Z,100628.56
2023-03-29T23:22:26.227Z,100617.13
2023-03-29T23:24:55.738Z,100613.56
2023-03-29T23:27:26.205Z,100625.72
2023-03-29T23:29:56.317Z,100625.72
2023-03-29T23:32:26.611Z,100621.47
2023-03-29T23:34:56.270Z,100618.94
2023-03-29T23:37:25.315Z,100623.06
2023-03-29T23:39:54.872Z,100617.91
2023-03-29T23:42:24.040Z,100626.84
2023-03-29T23:44:53.554Z,100618.88
2023-03-29T23:47:22.755Z,100630.41
2023-03-29T23:49:53.585Z,100618.00
2023-03-29T23:52:23.180Z,100612.78
2023-03-29T23:54:52.587Z,100611.03
2023-03-29T23:57:21.817Z,100615.41
2023-03-29T23:59:52.743Z,100611.88
